Weather reports worldwide

Advertisment
Newcastle, United Kingdom (3245): temperature & dewpoint: 19.05.2018 04:00:00 - 25.05.2018 04:00:00 (BST)Newcastle, United Kingdom (3245): wind speed: 19.05.2018 04:00:00 - 25.05.2018 04:00:00 (BST)Newcastle, United Kingdom (3245): wind direction: 19.05.2018 04:00:00 - 25.05.2018 04:00:00 (BST)Newcastle, United Kingdom (3245): visibility: 19.05.2018 04:00:00 - 25.05.2018 04:00:00 (BST)
Date & Time tt [°C] td [°C] ff [km/h] ff [kn] dd vv [km]
25.05.2018 04:00:00 - - - - - -
25.05.2018 03:00:00 9,0 9,0 8 4 N 2,4
25.05.2018 02:00:00 9,0 9,0 11 6 N 0,3
25.05.2018 01:00:00 9,0 9,0 13 7 N 0,3
25.05.2018 00:00:00 9,0 8,0 8 4 NNE 0,7
24.05.2018 23:00:00 9,0 8,0 8 4 N 4,6
24.05.2018 22:00:00 9,0 8,0 9 5 N 4,5
24.05.2018 21:00:00 9,0 8,0 9 5 N 3,5
24.05.2018 20:00:00 9,0 8,0 9 5 NE 8
24.05.2018 19:00:00 10,0 8,0 11 6 NE 10
24.05.2018 18:00:00 12,0 9,0 15 8 E 10
24.05.2018 17:00:00 13,0 8,0 13 7 E 10
24.05.2018 16:00:00 12,0 9,0 15 8 NE 10
24.05.2018 15:00:00 12,0 9,0 13 7 ENE 10
24.05.2018 14:00:00 12,0 8,0 13 7 ENE 10
24.05.2018 13:00:00 12,0 8,0 13 7 E 10
24.05.2018 12:00:00 10,0 7,0 11 6 E 10
24.05.2018 11:00:00 10,0 7,0 8 4 ENE 9
24.05.2018 10:00:00 9,0 8,0 8 4 NE 9
24.05.2018 09:00:00 9,0 8,0 5 3 ENE 7
24.05.2018 08:00:00 8,0 7,0 5 3 - 7
24.05.2018 07:00:00 8,0 7,0 8 4 E 7
24.05.2018 06:00:00 8,0 7,0 5 3 ENE 8
24.05.2018 05:00:00 8,0 7,0 4 2 - 9
24.05.2018 04:00:00 8,0 7,0 4 2 - 10
24.05.2018 03:00:00 8,0 7,0 5 3 - 10
24.05.2018 02:00:00 8,0 7,0 4 2 - 10
24.05.2018 01:00:00 9,0 7,0 4 2 - 10
24.05.2018 00:00:00 9,0 7,0 8 4 E 10
23.05.2018 23:00:00 9,0 7,0 4 2 - 10
23.05.2018 22:00:00 9,0 7,0 5 3 E 10
23.05.2018 21:00:00 9,0 7,0 9 5 ENE 10
23.05.2018 20:00:00 9,0 7,0 8 4 E 9
23.05.2018 19:00:00 10,0 7,0 9 5 E 10
23.05.2018 18:00:00 10,0 7,0 9 5 E 10
23.05.2018 17:00:00 11,0 7,0 8 4 E 10
23.05.2018 16:00:00 11,0 7,0 9 5 E 10
23.05.2018 15:00:00 11,0 7,0 9 5 E 10
23.05.2018 14:00:00 11,0 7,0 9 5 ENE 10
23.05.2018 13:00:00 10,0 7,0 11 6 ENE 10
23.05.2018 12:00:00 10,0 7,0 11 6 ENE 10
23.05.2018 11:00:00 10,0 7,0 9 5 NE 10
23.05.2018 10:00:00 9,0 7,0 11 6 NE 10
23.05.2018 09:00:00 9,0 7,0 11 6 NE 10
23.05.2018 08:00:00 9,0 7,0 13 7 NE 10
23.05.2018 07:00:00 9,0 7,0 9 5 NNE 10
23.05.2018 06:00:00 9,0 7,0 9 5 NNE 10
23.05.2018 05:00:00 - - - - - -
23.05.2018 04:00:00 9,0 7,0 8 4 NNE 10
23.05.2018 03:00:00 9,0 7,0 9 5 N 10
23.05.2018 02:00:00 9,0 7,0 9 5 N 10
23.05.2018 01:00:00 9,0 7,0 13 7 N 10
23.05.2018 00:00:00 9,0 7,0 11 6 N 10
22.05.2018 23:00:00 9,0 7,0 13 7 N 10
22.05.2018 22:00:00 9,0 7,0 13 7 N 10
22.05.2018 21:00:00 9,0 7,0 15 8 N 10
22.05.2018 20:00:00 10,0 7,0 18 10 N 10
22.05.2018 19:00:00 10,0 7,0 18 10 N 10
22.05.2018 18:00:00 10,0 8,0 16 9 N 10
22.05.2018 17:00:00 10,0 8,0 18 10 N 10
22.05.2018 16:00:00 11,0 8,0 18 10 N 10
22.05.2018 15:00:00 11,0 8,0 18 10 N 10
22.05.2018 14:00:00 11,0 8,0 24 13 N 10
22.05.2018 13:00:00 11,0 8,0 21 11 N 10
22.05.2018 12:00:00 10,0 8,0 18 10 NNE 10
22.05.2018 11:00:00 10,0 8,0 18 10 N 10
22.05.2018 10:00:00 9,0 8,0 26 14 NNE 9
22.05.2018 09:00:00 9,0 8,0 22 12 N 10
22.05.2018 08:00:00 8,0 8,0 24 13 N 2,0
22.05.2018 07:00:00 8,0 8,0 22 12 N 3,0
22.05.2018 06:00:00 8,0 8,0 18 10 N 2,5
22.05.2018 05:00:00 8,0 8,0 24 13 N 1,2
22.05.2018 04:00:00 8,0 8,0 22 12 NNE 1,7
22.05.2018 03:00:00 8,0 8,0 24 13 NNE 3,0
22.05.2018 02:00:00 9,0 8,0 24 13 NNE 4,0
22.05.2018 01:00:00 10,0 9,0 21 11 NNE 7
22.05.2018 00:00:00 9,0 8,0 9 5 NNW 8
21.05.2018 23:00:00 10,0 8,0 4 2 ENE 10
21.05.2018 22:00:00 11,0 8,0 8 4 NE 10
21.05.2018 21:00:00 13,0 8,0 8 4 NNE 10
21.05.2018 20:00:00 16,0 6,0 5 3 E 10
21.05.2018 19:00:00 19,0 7,0 5 3 - 10
21.05.2018 18:00:00 19,0 7,0 11 6 E 10
21.05.2018 17:00:00 19,0 7,0 16 9 ESE 10
21.05.2018 16:00:00 20,0 10,0 11 6 SE 10
21.05.2018 15:00:00 21,0 10,0 11 6 SE 10
21.05.2018 14:00:00 21,0 10,0 16 9 ESE 10
21.05.2018 13:00:00 21,0 7,0 9 5 SE 10
21.05.2018 12:00:00 20,0 8,0 9 5 S 10
21.05.2018 11:00:00 19,0 9,0 9 5 S 10
21.05.2018 10:00:00 18,0 11,0 5 3 - 10
21.05.2018 09:00:00 16,0 11,0 4 2 - 9
21.05.2018 08:00:00 13,0 10,0 2 1 - 7
21.05.2018 07:00:00 8,0 7,0 0 0 N 4,0
21.05.2018 06:00:00 6,0 6,0 2 1 NNW 2,0
21.05.2018 05:00:00 6,0 5,0 4 2 NW 3,0
21.05.2018 04:00:00 7,0 6,0 2 1 NNW 7
21.05.2018 03:00:00 10,0 9,0 2 1 - 10
21.05.2018 02:00:00 8,0 8,0 5 3 ESE 10
21.05.2018 01:00:00 9,0 8,0 5 3 - 10
21.05.2018 00:00:00 9,0 8,0 0 0 N 10
20.05.2018 23:00:00 10,0 9,0 0 0 N 10
20.05.2018 22:00:00 11,0 9,0 0 0 N 10
20.05.2018 21:00:00 13,0 10,0 5 3 - 10
20.05.2018 20:00:00 16,0 10,0 5 3 - 10
20.05.2018 19:00:00 19,0 11,0 11 6 E 10
20.05.2018 18:00:00 21,0 8,0 15 8 S 10
20.05.2018 17:00:00 21,0 7,0 15 8 S 10
20.05.2018 16:00:00 22,0 10,0 15 8 S 10
20.05.2018 15:00:00 23,0 9,0 13 7 SSW 10
20.05.2018 14:00:00 21,0 8,0 15 8 SSW 10
20.05.2018 13:00:00 21,0 9,0 11 6 S 10
20.05.2018 12:00:00 20,0 8,0 13 7 SSW 10
20.05.2018 11:00:00 19,0 8,0 9 5 S 10
20.05.2018 10:00:00 18,0 7,0 9 5 SW 10
20.05.2018 09:00:00 16,0 7,0 11 6 S 10
20.05.2018 08:00:00 13,0 6,0 4 2 - 10
20.05.2018 07:00:00 11,0 5,0 8 4 SSE 10
20.05.2018 06:00:00 9,0 5,0 8 4 S 10
20.05.2018 05:00:00 10,0 6,0 8 4 SSE 10
20.05.2018 04:00:00 9,0 6,0 5 3 - 10
20.05.2018 03:00:00 11,0 7,0 5 3 SSE 10
20.05.2018 02:00:00 11,0 7,0 5 3 SSE 10
20.05.2018 01:00:00 12,0 7,0 8 4 SSE 10
20.05.2018 00:00:00 10,0 7,0 0 0 N 10
19.05.2018 23:00:00 10,0 7,0 4 2 S 10
19.05.2018 22:00:00 13,0 6,0 5 3 WSW 10
19.05.2018 21:00:00 14,0 6,0 4 2 W 10
19.05.2018 20:00:00 18,0 5,0 13 7 WSW 10
19.05.2018 19:00:00 18,0 8,0 9 5 ESE 10
19.05.2018 18:00:00 18,0 6,0 11 6 SE 10
19.05.2018 17:00:00 19,0 6,0 15 8 ESE 10
19.05.2018 16:00:00 19,0 7,0 16 9 SE 10
19.05.2018 15:00:00 20,0 8,0 16 9 ESE 10
19.05.2018 14:00:00 20,0 5,0 11 6 SSE 10
19.05.2018 13:00:00 19,0 6,0 13 7 S 10
19.05.2018 12:00:00 19,0 8,0 9 5 S 10
19.05.2018 11:00:00 18,0 7,0 8 4 SE 10
19.05.2018 10:00:00 17,0 7,0 5 3 - 10
19.05.2018 09:00:00 14,0 8,0 2 1 - 10
19.05.2018 08:00:00 11,0 7,0 4 2 - 10
19.05.2018 07:00:00 8,0 5,0 2 1 SW 10
19.05.2018 06:00:00 6,0 4,0 8 4 SW 10
19.05.2018 05:00:00 5,0 4,0 5 3 SW 10
19.05.2018 04:00:00 4,0 3,0 4 2 SSW 10

tt = temperature
td = dewpoint
ff = wind speed
dd = wind direction
vv = visibility

Next stations